createdAt,value
2023-04-03T00:00:54.653Z,1.53
2023-04-03T00:03:21.986Z,1.80
2023-04-03T00:05:49.352Z,2.30
2023-04-03T00:08:16.450Z,1.80
2023-04-03T00:10:43.520Z,1.80
2023-04-03T00:13:11.077Z,1.70
2023-04-03T00:15:39.047Z,2.00
2023-04-03T00:18:06.423Z,2.13
2023-04-03T00:20:34.366Z,1.93
2023-04-03T00:23:02.383Z,1.77
2023-04-03T00:25:29.303Z,1.73
2023-04-03T00:27:56.418Z,2.03
2023-04-03T00:30:24.905Z,1.67
2023-04-03T00:32:53.426Z,1.83
2023-04-03T00:35:21.974Z,3.37
2023-04-03T00:37:49.578Z,3.60
2023-04-03T00:40:17.286Z,2.10
2023-04-03T00:42:46.647Z,1.80
2023-04-03T00:45:36.720Z,1.80
2023-04-03T00:48:07.606Z,2.00
2023-04-03T00:50:38.643Z,1.60
2023-04-03T00:53:07.524Z,1.50
2023-04-03T00:55:36.453Z,1.80
2023-04-03T00:58:03.801Z,1.90
2023-04-03T01:00:31.012Z,1.97
2023-04-03T01:02:58.044Z,1.47
2023-04-03T01:05:25.483Z,2.10
2023-04-03T01:07:53.683Z,1.90
2023-04-03T01:10:22.015Z,1.63
2023-04-03T01:12:51.424Z,2.47
2023-04-03T01:15:24.198Z,1.97
2023-04-03T01:18:01.746Z,2.00
2023-04-03T01:20:37.848Z,1.73
2023-04-03T01:23:11.199Z,1.77
2023-04-03T01:25:39.776Z,1.93
2023-04-03T01:28:09.193Z,1.93
2023-04-03T01:30:46.666Z,2.33
2023-04-03T01:33:13.578Z,1.50
2023-04-03T01:35:40.620Z,2.33
2023-04-03T01:38:07.952Z,1.70
2023-04-03T01:40:35.195Z,1.57
2023-04-03T01:43:02.181Z,1.60
2023-04-03T01:45:29.106Z,1.30
2023-04-03T01:47:56.467Z,1.30
2023-04-03T01:50:23.351Z,1.53
2023-04-03T01:52:50.275Z,2.10
2023-04-03T01:55:17.307Z,1.77
2023-04-03T01:57:44.199Z,2.87
2023-04-03T02:00:11.701Z,1.30
2023-04-03T02:02:38.681Z,1.60
2023-04-03T02:05:06.002Z,1.50
2023-04-03T02:07:33.084Z,2.30
2023-04-03T02:09:59.918Z,3.07
2023-04-03T02:12:26.748Z,2.90
2023-04-03T02:14:53.650Z,2.43
2023-04-03T02:17:20.481Z,2.07
2023-04-03T02:19:47.390Z,2.27
2023-04-03T02:22:14.490Z,3.37
2023-04-03T02:24:41.516Z,1.80
2023-04-03T02:27:08.685Z,1.73
2023-04-03T02:29:35.693Z,1.73
2023-04-03T02:32:02.585Z,3.13
2023-04-03T02:34:29.452Z,2.70
2023-04-03T02:36:56.299Z,1.87
2023-04-03T02:39:23.215Z,2.00
2023-04-03T02:41:50.109Z,2.03
2023-04-03T02:44:17.289Z,1.93
2023-04-03T02:46:44.144Z,2.00
2023-04-03T02:49:11.465Z,2.00
2023-04-03T02:51:38.342Z,2.00
2023-04-03T02:54:05.356Z,1.60
2023-04-03T02:56:32.269Z,1.67
2023-04-03T02:58:59.141Z,1.40
2023-04-03T03:01:28.227Z,1.67
2023-04-03T03:03:55.399Z,2.00
2023-04-03T03:06:22.209Z,1.70
2023-04-03T03:08:49.044Z,1.57
2023-04-03T03:11:16.156Z,1.73
2023-04-03T03:13:43.080Z,1.95
2023-04-03T03:16:10.000Z,1.60
2023-04-03T03:18:37.169Z,1.77
2023-04-03T03:21:04.493Z,1.80
2023-04-03T03:23:33.366Z,1.97
2023-04-03T03:26:02.434Z,2.10
2023-04-03T03:28:29.412Z,2.13
2023-04-03T03:30:56.296Z,1.80
2023-04-03T03:33:23.275Z,2.60
2023-04-03T03:35:50.906Z,2.67
2023-04-03T03:38:18.023Z,2.60
2023-04-03T03:40:44.855Z,1.93
2023-04-03T03:43:11.815Z,2.40
2023-04-03T03:45:38.948Z,2.13
2023-04-03T03:48:06.477Z,1.83
2023-04-03T03:50:33.421Z,1.92
2023-04-03T03:53:00.551Z,1.73
2023-04-03T03:55:27.414Z,1.90
2023-04-03T03:57:54.345Z,1.90
2023-04-03T04:00:22.239Z,1.90
2023-04-03T04:02:49.239Z,1.80
2023-04-03T04:05:16.287Z,1.92
2023-04-03T04:07:43.178Z,1.70
2023-04-03T04:10:10.879Z,1.58
2023-04-03T04:12:37.843Z,1.97
2023-04-03T04:15:05.150Z,2.10
2023-04-03T04:17:32.231Z,2.05
2023-04-03T04:19:59.328Z,1.67
2023-04-03T04:22:26.165Z,2.20
2023-04-03T04:24:53.076Z,4.40
2023-04-03T04:27:19.895Z,2.85
2023-04-03T04:29:46.800Z,2.20
2023-04-03T04:32:13.619Z,5.10
2023-04-03T04:34:40.649Z,8.23
2023-04-03T04:37:07.602Z,7.25
2023-04-03T04:39:34.546Z,9.27
2023-04-03T04:42:01.500Z,10.25
2023-04-03T04:44:28.386Z,6.30
2023-04-03T04:46:55.456Z,4.10
2023-04-03T04:49:22.416Z,3.50
2023-04-03T04:51:52.222Z,2.15
2023-04-03T04:54:19.435Z,2.60
2023-04-03T04:56:46.263Z,1.92
2023-04-03T04:59:13.276Z,2.20
2023-04-03T05:01:40.436Z,2.17
2023-04-03T05:04:07.513Z,3.30
2023-04-03T05:06:36.135Z,3.80
2023-04-03T05:09:03.497Z,3.70
2023-04-03T05:11:30.782Z,3.03
2023-04-03T05:13:57.662Z,1.98
2023-04-03T05:16:24.751Z,2.73
2023-04-03T05:18:51.673Z,3.03
2023-04-03T05:21:19.449Z,3.28
2023-04-03T05:23:46.326Z,2.47
2023-04-03T05:26:13.364Z,2.57
2023-04-03T05:28:40.375Z,1.73
2023-04-03T05:31:07.258Z,3.47
2023-04-03T05:33:34.217Z,2.20
2023-04-03T05:36:07.125Z,1.53
2023-04-03T05:38:34.232Z,1.80
2023-04-03T05:41:01.873Z,1.90
2023-04-03T05:43:29.155Z,1.50
2023-04-03T05:45:56.247Z,2.40
2023-04-03T05:48:23.529Z,2.47
2023-04-03T05:50:50.932Z,2.15
2023-04-03T05:53:25.210Z,2.00
2023-04-03T05:55:54.030Z,2.60
2023-04-03T05:58:21.345Z,2.10
2023-04-03T06:00:48.233Z,1.63
2023-04-03T06:03:15.284Z,1.80
2023-04-03T06:05:42.750Z,1.57
2023-04-03T06:08:10.217Z,1.43
2023-04-03T06:10:37.599Z,1.80
2023-04-03T06:13:04.558Z,1.77
2023-04-03T06:15:31.455Z,1.67
2023-04-03T06:17:58.297Z,2.30
2023-04-03T06:20:25.584Z,1.90
2023-04-03T06:22:52.651Z,1.63
2023-04-03T06:25:20.083Z,1.70
2023-04-03T06:27:47.028Z,2.07
2023-04-03T06:30:14.230Z,1.70
2023-04-03T06:32:41.701Z,1.73
2023-04-03T06:35:09.707Z,2.00
2023-04-03T06:37:37.067Z,1.83
2023-04-03T06:40:05.500Z,1.80
2023-04-03T06:42:32.534Z,1.80
2023-04-03T06:44:59.796Z,1.93
2023-04-03T06:47:27.168Z,3.00
2023-04-03T06:49:54.113Z,1.53
2023-04-03T06:52:21.897Z,2.63
2023-04-03T06:54:48.834Z,2.17
2023-04-03T06:57:16.414Z,1.87
2023-04-03T06:59:43.392Z,1.90
2023-04-03T07:02:13.467Z,1.83
2023-04-03T07:04:40.656Z,1.93
2023-04-03T07:07:08.597Z,1.93
2023-04-03T07:09:35.684Z,2.13
2023-04-03T07:12:02.616Z,1.97
2023-04-03T07:14:29.567Z,1.60
2023-04-03T07:16:56.873Z,1.90
2023-04-03T07:19:25.522Z,2.10
2023-04-03T07:21:52.798Z,1.90
2023-04-03T07:24:19.753Z,1.80
2023-04-03T07:26:51.296Z,2.10
2023-04-03T07:29:18.657Z,2.17
2023-04-03T07:31:46.464Z,37.03
2023-04-03T07:34:13.693Z,11.50
2023-04-03T07:36:40.721Z,44.57
2023-04-03T07:39:08.262Z,19.60
2023-04-03T07:41:35.336Z,31.00
2023-04-03T07:44:02.821Z,4.43
2023-04-03T07:46:29.721Z,11.50
2023-04-03T07:48:57.502Z,8.13
2023-04-03T07:51:27.264Z,14.03
2023-04-03T07:53:55.406Z,6.10
2023-04-03T07:56:23.855Z,5.53
2023-04-03T07:58:51.179Z,6.50
2023-04-03T08:01:18.096Z,3.87
2023-04-03T08:03:45.306Z,3.33
2023-04-03T08:06:16.234Z,1.43
2023-04-03T08:08:44.087Z,3.47
2023-04-03T08:11:12.068Z,2.03
2023-04-03T08:13:39.643Z,2.10
2023-04-03T08:16:16.983Z,1.60
2023-04-03T08:18:44.318Z,1.80
2023-04-03T08:21:12.866Z,1.67
2023-04-03T08:23:42.168Z,2.00
2023-04-03T08:26:14.796Z,1.90
2023-04-03T08:28:42.508Z,1.60
2023-04-03T08:31:13.185Z,1.50
2023-04-03T08:33:41.106Z,1.23
2023-04-03T08:36:16.878Z,1.20
2023-04-03T08:38:43.877Z,1.40
2023-04-03T08:41:33.813Z,1.60
2023-04-03T08:44:54.401Z,1.50
2023-04-03T08:47:35.072Z,1.40
2023-04-03T08:50:06.501Z,2.33
2023-04-03T08:52:40.755Z,2.00
2023-04-03T08:55:31.751Z,1.67
2023-04-03T08:58:04.864Z,1.43
2023-04-03T09:00:56.382Z,1.67
2023-04-03T09:03:24.342Z,1.83
2023-04-03T09:06:08.142Z,2.07
2023-04-03T09:08:47.788Z,1.50
2023-04-03T09:11:24.903Z,1.50
2023-04-03T09:14:04.148Z,1.80
2023-04-03T09:16:49.713Z,1.77
2023-04-03T09:19:32.138Z,1.55
2023-04-03T09:22:17.655Z,1.93
2023-04-03T09:24:57.124Z,1.85
2023-04-03T09:27:24.111Z,1.70
2023-04-03T09:29:54.863Z,2.30
2023-04-03T09:32:27.920Z,2.50
2023-04-03T09:34:59.752Z,1.57
2023-04-03T09:37:41.165Z,2.00
2023-04-03T09:40:30.786Z,5.97
2023-04-03T09:43:17.032Z,5.07
2023-04-03T09:45:46.846Z,2.60
2023-04-03T09:48:16.179Z,8.00
2023-04-03T09:50:56.450Z,3.57
2023-04-03T09:53:38.493Z,2.50
2023-04-03T09:56:17.808Z,6.17
2023-04-03T09:59:04.935Z,4.97
2023-04-03T10:01:35.433Z,2.43
2023-04-03T10:04:20.763Z,2.10
2023-04-03T10:06:56.361Z,7.47
2023-04-03T10:09:34.373Z,5.17
2023-04-03T10:12:07.908Z,3.47
2023-04-03T10:14:41.576Z,2.03
2023-04-03T10:17:22.472Z,2.00
2023-04-03T10:19:55.648Z,4.83
2023-04-03T10:22:44.140Z,2.57
2023-04-03T10:25:33.037Z,1.80
2023-04-03T10:29:01.048Z,3.93
2023-04-03T10:31:47.048Z,4.43
2023-04-03T10:34:32.814Z,2.83
2023-04-03T10:37:24.923Z,2.00
2023-04-03T10:40:12.306Z,2.33
2023-04-03T10:42:54.075Z,2.13
2023-04-03T10:45:34.139Z,1.90
2023-04-03T10:48:18.457Z,2.50
2023-04-03T10:51:22.825Z,2.30
2023-04-03T10:54:11.159Z,2.03
2023-04-03T10:57:11.593Z,2.63
2023-04-03T11:00:02.515Z,2.20
2023-04-03T11:02:36.308Z,2.73
2023-04-03T11:05:31.009Z,1.90
2023-04-03T11:08:03.209Z,2.23
2023-04-03T11:10:43.694Z,1.70
2023-04-03T11:13:26.395Z,2.23
2023-04-03T11:15:55.643Z,2.10
2023-04-03T11:19:01.054Z,1.80
2023-04-03T11:21:38.526Z,2.10
2023-04-03T11:24:13.227Z,1.73
2023-04-03T11:26:43.347Z,2.17
2023-04-03T11:29:28.110Z,1.83
2023-04-03T11:32:29.425Z,1.80
2023-04-03T11:35:00.323Z,2.53
2023-04-03T11:37:36.662Z,1.63
2023-04-03T11:40:21.633Z,2.10
2023-04-03T11:42:51.026Z,2.22
2023-04-03T11:45:26.532Z,1.57
2023-04-03T11:53:18.374Z,2.27
2023-04-03T11:55:51.050Z,1.83
2023-04-03T11:58:24.038Z,2.50
2023-04-03T12:01:03.613Z,1.53
2023-04-03T12:03:32.254Z,1.63
2023-04-03T12:06:08.351Z,1.60
2023-04-03T12:08:35.413Z,1.67
2023-04-03T12:11:14.456Z,1.70
2023-04-03T12:13:53.378Z,1.70
2023-04-03T12:16:23.087Z,1.80
2023-04-03T12:18:49.952Z,1.60
2023-04-03T12:21:22.531Z,1.50
2023-04-03T12:24:09.425Z,1.83
2023-04-03T12:26:48.631Z,1.33
2023-04-03T12:29:45.731Z,1.90
2023-04-03T12:32:21.371Z,1.37
2023-04-03T12:35:12.519Z,1.97
2023-04-03T12:38:12.819Z,1.50
2023-04-03T12:41:18.439Z,1.70
2023-04-03T12:44:02.868Z,1.70
2023-04-03T12:46:44.416Z,1.70
2023-04-03T12:49:30.042Z,1.73
2023-04-03T12:51:57.312Z,2.05
2023-04-03T12:54:30.654Z,1.90
2023-04-03T12:57:25.430Z,1.83
2023-04-03T12:59:52.766Z,1.60
2023-04-03T13:02:31.836Z,2.00
2023-04-03T13:05:09.003Z,1.90
2023-04-03T13:07:40.074Z,2.07
2023-04-03T13:10:10.133Z,1.90
2023-04-03T13:12:58.708Z,3.20
2023-04-03T13:15:31.825Z,2.13
2023-04-03T13:17:59.021Z,2.47
2023-04-03T13:20:30.482Z,1.70
2023-04-03T13:23:07.681Z,1.80
2023-04-03T13:25:37.237Z,2.00
2023-04-03T13:28:13.385Z,1.60
2023-04-03T13:30:42.268Z,2.00
2023-04-03T13:33:28.024Z,5.93
2023-04-03T13:36:25.600Z,7.38
2023-04-03T13:39:07.870Z,3.37
2023-04-03T13:41:38.663Z,5.00
2023-04-03T13:44:23.920Z,5.23
2023-04-03T13:47:14.906Z,3.83
2023-04-03T13:49:47.572Z,1.90
2023-04-03T13:52:37.091Z,2.77
2023-04-03T13:55:26.497Z,1.93
2023-04-03T13:58:11.039Z,2.03
2023-04-03T14:00:49.217Z,2.10
2023-04-03T14:03:21.886Z,2.57
2023-04-03T14:05:49.008Z,2.40
2023-04-03T14:08:16.002Z,2.40
2023-04-03T14:10:43.687Z,2.30
2023-04-03T14:13:16.465Z,1.70
2023-04-03T14:15:44.033Z,1.90
2023-04-03T14:18:16.276Z,2.30
2023-04-03T14:20:44.466Z,2.00
2023-04-03T14:23:13.391Z,1.80
2023-04-03T14:25:41.906Z,2.00
2023-04-03T14:28:22.054Z,1.87
2023-04-03T14:30:51.719Z,2.00
2023-04-03T14:33:22.192Z,2.00
2023-04-03T14:35:49.959Z,1.90
2023-04-03T14:38:28.999Z,1.90
2023-04-03T14:41:00.950Z,1.53
2023-04-03T14:43:33.589Z,1.87
2023-04-03T14:46:00.857Z,1.87
2023-04-03T14:48:30.574Z,1.70
2023-04-03T14:51:05.067Z,2.10
2023-04-03T14:53:38.845Z,1.60
2023-04-03T14:56:24.934Z,2.00
2023-04-03T14:58:58.396Z,2.40
2023-04-03T15:01:25.987Z,2.83
2023-04-03T15:03:53.253Z,5.70
2023-04-03T15:06:20.580Z,4.03
2023-04-03T15:08:48.579Z,2.87
2023-04-03T15:11:16.041Z,2.10
2023-04-03T15:13:43.147Z,2.10
2023-04-03T15:16:20.645Z,2.23
2023-04-03T15:18:50.131Z,1.87
2023-04-03T15:21:17.764Z,2.23
2023-04-03T15:23:44.789Z,2.73
2023-04-03T15:26:11.821Z,2.00
2023-04-03T15:28:41.870Z,1.80
2023-04-03T15:31:09.684Z,2.47
2023-04-03T15:33:37.417Z,1.90
2023-04-03T15:36:07.607Z,2.10
2023-04-03T15:38:39.338Z,2.50
2023-04-03T15:41:06.591Z,2.10
2023-04-03T15:43:34.885Z,2.67
2023-04-03T15:46:02.681Z,2.70
2023-04-03T15:48:30.082Z,1.70
2023-04-03T15:50:58.551Z,2.00
2023-04-03T15:53:26.166Z,3.90
2023-04-03T15:55:53.069Z,2.23
2023-04-03T15:58:20.051Z,2.00
2023-04-03T16:00:47.211Z,2.00
2023-04-03T16:03:18.288Z,2.40
2023-04-03T16:05:45.761Z,2.30
2023-04-03T16:08:13.304Z,1.77
2023-04-03T16:10:41.603Z,2.50
2023-04-03T16:13:08.654Z,2.20
2023-04-03T16:15:36.739Z,17.57
2023-04-03T16:18:04.299Z,25.67
2023-04-03T16:20:31.860Z,28.13
2023-04-03T16:23:00.827Z,33.67
2023-04-03T16:25:27.764Z,5.73
2023-04-03T16:27:54.936Z,16.07
2023-04-03T16:30:21.873Z,18.77
2023-04-03T16:32:49.058Z,8.30
2023-04-03T16:35:16.079Z,6.37
2023-04-03T16:37:43.024Z,6.80
2023-04-03T16:40:10.886Z,11.00
2023-04-03T16:42:38.268Z,4.00
2023-04-03T16:45:07.026Z,5.63
2023-04-03T16:47:34.149Z,4.90
2023-04-03T16:50:01.419Z,3.27
2023-04-03T16:52:28.633Z,4.47
2023-04-03T16:54:56.753Z,2.97
2023-04-03T16:57:25.966Z,3.57
2023-04-03T16:59:53.941Z,2.27
2023-04-03T17:02:22.637Z,2.90
2023-04-03T17:04:50.861Z,2.47
2023-04-03T17:07:23.224Z,2.70
2023-04-03T17:09:50.851Z,2.70
2023-04-03T17:12:18.286Z,2.50
2023-04-03T17:14:45.225Z,2.60
2023-04-03T17:17:12.236Z,2.97
2023-04-03T17:19:40.651Z,2.90
2023-04-03T17:22:09.625Z,2.37
2023-04-03T17:24:37.118Z,2.40
2023-04-03T17:27:05.038Z,3.33
2023-04-03T17:29:32.440Z,2.63
2023-04-03T17:31:59.427Z,3.83
2023-04-03T17:34:26.418Z,2.87
2023-04-03T17:36:53.382Z,2.90
2023-04-03T17:39:20.912Z,3.00
2023-04-03T17:41:49.322Z,3.30
2023-04-03T17:44:16.285Z,2.90
2023-04-03T17:46:43.370Z,2.93
2023-04-03T17:49:14.909Z,3.03
2023-04-03T17:51:42.545Z,2.87
2023-04-03T17:54:09.672Z,3.17
2023-04-03T17:56:36.693Z,2.40
2023-04-03T17:59:03.794Z,2.97
2023-04-03T18:01:36.406Z,2.33
2023-04-03T18:04:05.898Z,2.63
2023-04-03T18:06:42.781Z,2.33
2023-04-03T18:09:15.388Z,2.90
2023-04-03T18:11:43.422Z,2.40
2023-04-03T18:14:11.150Z,2.63
2023-04-03T18:16:38.224Z,2.63
2023-04-03T18:19:21.791Z,2.80
2023-04-03T18:21:49.870Z,2.47
2023-04-03T18:24:19.351Z,2.80
2023-04-03T18:26:51.601Z,3.37
2023-04-03T18:29:18.837Z,3.40
2023-04-03T18:31:48.665Z,3.37
2023-04-03T18:34:15.617Z,25.10
2023-04-03T18:36:42.784Z,73.77
2023-04-03T18:39:10.103Z,28.03
2023-04-03T18:41:37.795Z,37.47
2023-04-03T18:44:06.975Z,36.07
2023-04-03T18:46:34.280Z,6.70
2023-04-03T18:49:01.418Z,22.03
2023-04-03T18:51:28.669Z,20.73
2023-04-03T18:53:55.917Z,19.83
2023-04-03T18:56:23.075Z,19.13
2023-04-03T18:58:50.156Z,13.70
2023-04-03T19:01:17.482Z,12.23
2023-04-03T19:03:45.033Z,4.30
2023-04-03T19:06:16.611Z,8.87
2023-04-03T19:08:44.012Z,7.20
2023-04-03T19:11:11.717Z,8.53
2023-04-03T19:13:46.779Z,3.70
2023-04-03T19:16:26.877Z,3.67
2023-04-03T19:18:53.871Z,4.23
2023-04-03T19:21:21.311Z,5.93
2023-04-03T19:23:48.910Z,6.00
2023-04-03T19:26:16.365Z,6.57
2023-04-03T19:28:44.685Z,4.93
2023-04-03T19:31:21.541Z,3.77
2023-04-03T19:33:49.085Z,4.13
2023-04-03T19:36:17.829Z,5.13
2023-04-03T19:38:45.078Z,4.40
2023-04-03T19:41:16.458Z,5.17
2023-04-03T19:43:43.614Z,3.53
2023-04-03T19:46:11.788Z,2.73
2023-04-03T19:48:39.304Z,2.80
2023-04-03T19:51:08.063Z,3.53
2023-04-03T19:53:35.265Z,2.83
2023-04-03T19:56:02.368Z,3.60
2023-04-03T19:58:30.189Z,2.73
2023-04-03T20:00:58.224Z,3.57
2023-04-03T20:03:26.300Z,3.30
2023-04-03T20:05:54.750Z,3.13
2023-04-03T20:08:21.806Z,3.07
2023-04-03T20:10:49.132Z,3.03
2023-04-03T20:13:16.086Z,2.23
2023-04-03T20:15:44.962Z,2.50
2023-04-03T20:18:18.276Z,2.90
2023-04-03T20:21:06.876Z,2.47
2023-04-03T20:23:34.680Z,3.13
2023-04-03T20:26:10.777Z,49.33
2023-04-03T20:28:42.313Z,18.90
2023-04-03T20:31:10.231Z,29.20
2023-04-03T20:33:38.047Z,19.83
2023-04-03T20:36:05.228Z,38.47
2023-04-03T20:38:32.178Z,11.83
2023-04-03T20:41:00.356Z,13.63
2023-04-03T20:43:28.459Z,3.60
2023-04-03T20:45:55.759Z,14.53
2023-04-03T20:48:22.853Z,12.63
2023-04-03T20:50:49.832Z,11.00
2023-04-03T20:53:19.118Z,11.80
2023-04-03T20:56:00.735Z,8.20
2023-04-03T20:58:30.392Z,3.80
2023-04-03T21:00:57.927Z,4.77
2023-04-03T21:03:26.664Z,2.80
2023-04-03T21:06:03.913Z,3.27
2023-04-03T21:09:08.341Z,4.47
2023-04-03T21:12:12.911Z,2.77
2023-04-03T21:15:17.220Z,3.37
2023-04-03T21:18:34.440Z,3.30
2023-04-03T21:21:05.508Z,3.23
2023-04-03T21:23:33.049Z,3.53
2023-04-03T21:26:00.821Z,2.88
2023-04-03T21:28:27.691Z,3.23
2023-04-03T21:30:54.705Z,2.17
2023-04-03T21:33:21.590Z,2.07
2023-04-03T21:35:48.709Z,2.27
2023-04-03T21:38:15.714Z,2.53
2023-04-03T21:40:46.649Z,3.23
2023-04-03T21:43:13.628Z,2.60
2023-04-03T21:45:40.825Z,2.63
2023-04-03T21:48:10.253Z,1.97
2023-04-03T21:50:37.351Z,1.93
2023-04-03T21:53:04.431Z,1.90
2023-04-03T21:55:31.764Z,2.03
2023-04-03T21:57:59.478Z,1.75
2023-04-03T22:00:26.690Z,1.80
2023-04-03T22:03:03.947Z,2.10
2023-04-03T22:05:37.824Z,2.22
2023-04-03T22:08:04.942Z,1.80
2023-04-03T22:10:31.900Z,1.98
2023-04-03T22:12:58.714Z,2.22
2023-04-03T22:15:25.898Z,3.05
2023-04-03T22:17:52.759Z,2.15
2023-04-03T22:20:19.659Z,1.70
2023-04-03T22:22:46.626Z,1.70
2023-04-03T22:25:13.587Z,2.50
2023-04-03T22:27:41.153Z,1.80
2023-04-03T22:30:08.724Z,1.60
2023-04-03T22:32:35.722Z,2.03
2023-04-03T22:35:03.061Z,1.90
2023-04-03T22:37:29.936Z,1.98
2023-04-03T22:39:57.874Z,2.10
2023-04-03T22:42:24.758Z,2.20
2023-04-03T22:44:51.613Z,2.50
2023-04-03T22:47:18.460Z,1.90
2023-04-03T22:49:45.581Z,2.20
2023-04-03T22:52:12.463Z,2.00
2023-04-03T22:54:39.408Z,2.10
2023-04-03T22:57:06.336Z,2.40
2023-04-03T22:59:33.245Z,2.87
2023-04-03T23:02:00.104Z,2.20
2023-04-03T23:04:27.059Z,2.22
2023-04-03T23:06:54.082Z,2.90
2023-04-03T23:09:21.374Z,2.37
2023-04-03T23:11:48.227Z,2.13
2023-04-03T23:14:15.067Z,1.90
2023-04-03T23:16:42.260Z,2.40
2023-04-03T23:19:09.629Z,2.28
2023-04-03T23:21:36.526Z,1.63
2023-04-03T23:24:03.384Z,2.13
2023-04-03T23:26:30.222Z,1.77
2023-04-03T23:28:57.364Z,2.10
2023-04-03T23:31:25.987Z,2.27
2023-04-03T23:33:52.906Z,1.70
2023-04-03T23:36:21.129Z,2.25
2023-04-03T23:38:48.188Z,1.80
2023-04-03T23:41:15.257Z,2.20
2023-04-03T23:43:42.460Z,2.00
2023-04-03T23:46:09.555Z,1.85
2023-04-03T23:48:36.600Z,2.30
2023-04-03T23:51:03.980Z,1.85
2023-04-03T23:53:30.976Z,1.92
2023-04-03T23:55:58.051Z,1.90
2023-04-03T23:58:25.050Z,3.37
